Time;durP1;ratioP1;P1;durP2;ratioP2;P2;SDS_P1;SDS_P2;PMS_P1;PMS_P2;Temp;Humidity;BMP_temperature;BMP_pressure;BME280_temperature;BME280_humidity;BME280_pressure;Samples;Min_cycle;Max_cycle;Signal;HPM_P1;HPM_P2
2023/08/25 00:00:14;;;;;;;1.67;1.67;;;23.90;99.90;;;24.26;93.79;100830.25;5041380;28;20081;-75
2023/08/25 00:02:43;;;;;;;2.28;2.17;;;23.90;99.90;;;24.27;93.78;100836.53;5038371;28;20084;-75
2023/08/25 00:05:11;;;;;;;1.95;1.85;;;23.90;99.90;;;24.21;93.55;100839.63;5045015;28;20049;-75
2023/08/25 00:07:40;;;;;;;2.20;2.10;;;23.80;99.90;;;24.11;93.99;100832.06;5044388;28;20124;-74
2023/08/25 00:10:09;;;;;;;2.20;2.10;;;23.70;99.90;;;24.04;94.31;100833.38;5043238;28;20049;-74
2023/08/25 00:12:38;;;;;;;2.33;2.22;;;23.60;99.90;;;24.00;94.66;100826.41;5045578;28;20072;-75
2023/08/25 00:15:09;;;;;;;2.27;2.17;;;23.60;99.90;;;23.97;94.68;100823.00;5043081;28;20493;-75
2023/08/25 00:17:38;;;;;;;2.25;2.15;;;23.60;99.90;;;23.92;94.95;100826.00;5034315;28;20414;-74
2023/08/25 00:20:12;;;;;;;2.25;2.15;;;23.50;99.90;;;23.84;95.15;100819.31;5042633;28;20046;-75
2023/08/25 00:22:40;;;;;;;2.50;2.40;;;23.40;99.90;;;23.79;96.06;100822.28;5044530;28;20099;-74
2023/08/25 00:25:09;;;;;;;2.35;2.25;;;23.40;99.90;;;23.76;96.15;100818.91;5043119;28;20443;-75
2023/08/25 00:27:39;;;;;;;2.33;2.22;;;23.30;99.90;;;23.73;96.69;100819.94;5043514;28;20490;-75
2023/08/25 00:30:10;;;;;;;2.28;2.17;;;23.30;99.90;;;23.73;96.97;100816.38;5045057;28;20536;-74
2023/08/25 00:32:38;;;;;;;1.73;1.70;;;23.30;99.90;;;23.59;96.58;100806.41;5049515;28;20042;-74
2023/08/25 00:35:08;;;;;;;2.30;2.20;;;23.30;99.90;;;23.70;96.97;100822.84;5033977;28;20044;-74
2023/08/25 00:37:36;;;;;;;2.30;2.20;;;23.30;99.90;;;23.66;97.39;100823.97;5040846;28;20103;-72
2023/08/25 00:40:06;;;;;;;2.28;2.17;;;23.20;99.90;;;23.61;96.96;100820.69;5039021;28;20049;-74
2023/08/25 00:42:36;;;;;;;2.40;2.30;;;23.20;99.90;;;23.37;94.80;100827.50;5050944;28;20049;-74
2023/08/25 00:45:07;;;;;;;2.85;2.75;;;23.00;99.90;;;23.12;94.08;100832.53;5043898;28;20045;-75
2023/08/25 00:47:36;;;;;;;2.63;2.53;;;22.80;99.90;;;22.87;95.84;100833.03;5042771;28;20128;-75
2023/08/25 00:50:07;;;;;;;2.60;2.50;;;22.60;99.90;;;22.53;97.05;100811.53;5052197;28;20398;-75
2023/08/25 00:52:38;;;;;;;2.40;2.30;;;22.40;99.90;;;22.55;97.84;100824.94;5031778;28;20081;-74
2023/08/25 00:55:07;;;;;;;2.53;2.42;;;22.30;99.90;;;22.59;97.96;100834.66;5032878;28;20434;-74
2023/08/25 00:57:36;;;;;;;2.60;2.50;;;22.20;99.90;;;22.40;98.28;100838.28;5034076;28;20037;-74
2023/08/25 01:00:11;;;;;;;2.53;2.42;;;22.10;99.90;;;22.35;98.73;100832.28;5043078;28;20060;-74
2023/08/25 01:02:40;;;;;;;3.53;3.33;;;22.00;99.90;;;22.45;98.36;100825.41;5044522;28;20096;-74
2023/08/25 01:05:09;;;;;;;2.55;2.45;;;22.10;99.90;;;22.54;98.68;100837.56;5048603;28;20046;-74
2023/08/25 01:07:37;;;;;;;2.40;2.30;;;22.20;99.90;;;22.63;98.58;100831.69;5051906;28;20106;-74
2023/08/25 01:10:08;;;;;;;2.38;2.28;;;22.20;99.90;;;22.70;98.77;100833.09;5045120;28;20044;-74
2023/08/25 01:12:51;;;;;;;2.40;2.30;;;22.30;99.90;;;22.75;98.66;100830.13;5041901;28;20053;-74
2023/08/25 01:15:28;;;;;;;2.38;2.28;;;22.40;99.90;;;22.80;98.37;100830.78;5042193;28;20045;-75
2023/08/25 01:18:06;;;;;;;2.40;2.30;;;22.40;99.90;;;22.89;98.17;100822.16;5043613;28;20076;-74
2023/08/25 01:20:36;;;;;;;2.28;2.17;;;22.50;99.90;;;22.89;98.42;100825.75;5043137;28;20041;-73
2023/08/25 01:23:17;;;;;;;2.50;2.40;;;22.50;99.90;;;22.93;98.27;100813.81;5048554;28;20041;-74
2023/08/25 01:25:49;;;;;;;2.35;2.25;;;22.50;99.90;;;22.98;98.29;100824.34;5042400;28;20053;-75
2023/08/25 01:28:21;;;;;;;2.45;2.35;;;22.60;99.90;;;22.96;97.91;100820.84;5042925;28;20483;-74
2023/08/25 01:30:49;;;;;;;2.50;2.40;;;22.60;99.90;;;22.79;96.73;100824.50;5043778;28;20052;-74
2023/08/25 01:33:19;;;;;;;2.47;2.38;;;22.40;99.90;;;22.65;97.73;100813.59;5041504;28;20038;-73
2023/08/25 01:35:59;;;;;;;2.60;2.50;;;22.30;99.90;;;22.61;97.63;100795.84;5051735;28;20151;-74
2023/08/25 01:38:32;;;;;;;2.00;1.90;;;22.30;99.90;;;22.73;98.12;100814.03;5033133;28;20045;-73
2023/08/25 01:41:09;;;;;;;2.10;2.00;;;22.30;99.90;;;22.74;98.54;100815.81;5032855;28;20068;-74
2023/08/25 01:43:43;;;;;;;2.35;2.25;;;22.30;99.90;;;22.74;99.11;100812.22;5041251;28;20084;-73
2023/08/25 01:46:14;;;;;;;2.20;2.10;;;22.30;99.90;;;22.74;99.03;100812.22;5043081;28;20053;-74
2023/08/25 01:48:47;;;;;;;2.60;2.50;;;22.30;99.90;;;22.77;99.18;100809.34;5043145;28;20049;-75
2023/08/25 01:51:16;;;;;;;2.60;2.50;;;22.30;99.90;;;22.80;99.13;100803.78;5048355;28;20049;-74
2023/08/25 01:53:45;;;;;;;2.30;2.20;;;22.40;99.90;;;22.84;98.78;100799.97;5050961;28;20075;-73
2023/08/25 01:56:15;;;;;;;2.67;2.58;;;22.40;99.90;;;22.82;98.63;100796.50;5043708;28;20056;-74
2023/08/25 01:58:44;;;;;;;2.10;2.00;;;22.40;99.90;;;22.82;98.35;100801.88;5039307;28;20454;-73
2023/08/25 02:01:14;;;;;;;2.28;2.17;;;22.40;99.90;;;22.72;98.35;100782.66;5049847;28;20045;-74
2023/08/25 02:03:42;;;;;;;2.55;2.45;;;22.40;99.90;;;22.82;98.77;100791.09;5040795;28;20399;-75
2023/08/25 02:06:11;;;;;;;2.85;2.75;;;22.40;99.90;;;22.84;98.27;100791.88;5042155;28;20455;-74
2023/08/25 02:08:39;;;;;;;2.35;2.25;;;22.40;99.90;;;22.84;97.91;100794.59;5042944;28;20049;-73
2023/08/25 02:11:08;;;;;;;2.50;2.40;;;22.40;99.90;;;22.79;97.97;100789.44;5040065;28;20051;-74
2023/08/25 02:13:38;;;;;;;2.40;2.30;;;22.40;99.90;;;22.70;97.82;100787.25;5043673;28;20487;-74
2023/08/25 02:16:07;;;;;;;2.60;2.50;;;22.30;99.90;;;22.63;98.36;100785.84;5042747;28;20095;-73
2023/08/25 02:18:35;;;;;;;2.40;2.30;;;22.20;99.90;;;22.55;98.43;100781.81;5040667;28;20042;-74
2023/08/25 02:21:03;;;;;;;7.03;3.17;;;22.10;99.90;;;22.44;98.85;100787.78;5050251;28;20564;-74
2023/08/25 02:23:32;;;;;;;2.63;2.53;;;22.00;99.90;;;22.43;99.20;100784.19;5041348;28;20049;-73
2023/08/25 02:26:02;;;;;;;2.28;2.17;;;22.00;99.90;;;22.43;99.29;100777.97;5042881;28;20094;-73
2023/08/25 02:28:30;;;;;;;2.47;2.38;;;22.00;99.90;;;22.40;99.65;100772.72;5042377;28;20053;-74
2023/08/25 02:31:02;;;;;;;2.73;2.63;;;22.00;99.90;;;22.34;100.00;100768.53;5048402;28;20041;-74
2023/08/25 02:33:35;;;;;;;2.38;2.28;;;21.80;99.90;;;22.31;100.00;100768.72;5054455;28;20299;-74
2023/08/25 02:36:04;;;;;;;2.20;2.10;;;21.80;99.90;;;22.15;100.00;100751.63;5051573;28;20077;-73
2023/08/25 02:38:34;;;;;;;2.80;2.70;;;21.80;99.90;;;22.24;100.00;100761.03;5043243;28;20041;-74
2023/08/25 02:41:02;;;;;;;2.60;2.50;;;21.80;99.90;;;22.26;100.00;100757.28;5051384;28;20375;-73
2023/08/25 02:43:30;;;;;;;2.47;2.38;;;21.80;99.90;;;22.29;100.00;100746.38;5045768;28;20046;-74
2023/08/25 02:46:01;;;;;;;2.58;2.47;;;21.80;99.90;;;22.32;100.00;100745.31;5046190;28;20129;-74
2023/08/25 02:48:29;;;;;;;2.13;2.03;;;21.90;99.90;;;22.41;100.00;100742.97;5046678;28;20041;-74
2023/08/25 02:50:58;;;;;;;2.40;2.30;;;22.00;99.90;;;22.50;100.00;100744.28;5044749;28;20461;-74
2023/08/25 02:53:26;;;;;;;4.10;3.90;;;22.10;99.90;;;22.62;100.00;100738.25;5054573;28;20051;-74
2023/08/25 02:55:54;;;;;;;2.50;2.40;;;22.20;99.90;;;22.70;100.00;100737.84;5051081;28;20041;-74
2023/08/25 02:58:25;;;;;;;2.65;2.55;;;22.30;99.90;;;22.68;100.00;100728.94;5042351;28;20511;-73
2023/08/25 03:00:53;;;;;;;2.65;2.55;;;22.30;99.90;;;22.75;100.00;100742.00;5053122;28;20045;-74
2023/08/25 03:03:26;;;;;;;2.92;2.83;;;22.30;99.90;;;22.79;100.00;100737.31;5043038;28;20072;-74
2023/08/25 03:05:59;;;;;;;2.45;2.35;;;22.40;99.90;;;22.79;100.00;100734.59;5051952;28;20049;-73
2023/08/25 03:08:28;;;;;;;2.47;2.38;;;22.40;99.90;;;22.88;100.00;100726.00;5046798;28;20037;-74
2023/08/25 03:10:56;;;;;;;2.63;2.53;;;22.50;99.90;;;22.89;100.00;100736.72;5042638;28;20041;-74
2023/08/25 03:13:24;;;;;;;2.42;2.33;;;22.50;99.90;;;22.89;100.00;100719.63;5046229;28;20056;-74
2023/08/25 03:15:56;;;;;;;2.45;2.35;;;22.50;99.90;;;22.95;100.00;100720.16;5059675;28;20051;-74
2023/08/25 03:18:26;;;;;;;3.22;3.08;;;22.60;99.90;;;22.99;100.00;100716.34;5052776;28;20081;-74
2023/08/25 03:20:55;;;;;;;2.38;2.28;;;22.60;99.90;;;23.01;100.00;100725.22;5044043;28;20413;-74
2023/08/25 03:23:24;;;;;;;2.38;2.28;;;22.60;99.90;;;23.04;100.00;100726.84;5051579;28;20052;-74
2023/08/25 03:25:52;;;;;;;2.70;2.60;;;22.60;99.90;;;22.96;100.00;100721.88;5045843;28;20426;-74
2023/08/25 03:28:20;;;;;;;2.20;2.10;;;22.60;99.90;;;22.82;100.00;100720.97;5044279;28;20050;-74
2023/08/25 03:30:52;;;;;;;2.85;2.75;;;22.40;99.90;;;22.66;100.00;100717.38;5046593;28;20111;-75
2023/08/25 03:33:25;;;;;;;2.28;2.17;;;22.20;99.90;;;22.62;100.00;100714.00;5050630;28;20049;-74
2023/08/25 03:35:54;;;;;;;2.20;2.10;;;22.10;99.90;;;22.28;100.00;100650.28;5035206;28;20045;-74
2023/08/25 03:38:22;;;;;;;2.33;2.22;;;22.20;99.90;;;22.73;100.00;100708.84;5040945;28;20072;-72
2023/08/25 03:40:59;;;;;;;2.38;2.28;;;22.30;99.90;;;22.67;100.00;100702.94;5040900;28;20037;-74
2023/08/25 03:43:27;;;;;;;2.58;2.47;;;22.30;99.90;;;22.74;100.00;100717.81;5043654;28;20072;-74
2023/08/25 03:45:56;;;;;;;2.30;2.20;;;22.30;99.90;;;22.76;100.00;100703.31;5049974;28;20045;-74
2023/08/25 03:48:26;;;;;;;2.20;2.10;;;22.30;99.90;;;22.73;100.00;100705.28;5038336;28;20114;-73
2023/08/25 03:50:54;;;;;;;2.55;2.45;;;22.30;99.90;;;22.74;100.00;100707.91;5045771;28;20057;-73
2023/08/25 03:53:23;;;;;;;2.30;2.20;;;22.30;99.90;;;22.74;100.00;100709.72;5044163;28;20049;-73
2023/08/25 03:55:51;;;;;;;2.58;2.47;;;22.30;99.90;;;22.71;100.00;100707.19;5044083;28;20041;-73
2023/08/25 03:58:19;;;;;;;2.50;2.40;;;22.30;99.90;;;22.74;100.00;100707.91;5044547;28;20095;-73
2023/08/25 04:00:54;;;;;;;2.60;2.50;;;22.30;99.90;;;22.83;100.00;100701.09;5044397;28;20053;-74
2023/08/25 04:03:22;;;;;;;2.28;2.17;;;22.40;99.90;;;22.80;100.00;100698.59;5052981;28;20049;-72
2023/08/25 04:05:52;;;;;;;2.10;2.00;;;22.40;99.90;;;22.83;100.00;100701.97;5042544;28;20080;-73
2023/08/25 04:08:21;;;;;;;3.27;3.07;;;22.40;99.90;;;22.82;100.00;100696.69;5049530;28;20506;-73
2023/08/25 04:10:49;;;;;;;2.53;2.42;;;22.40;99.90;;;22.82;100.00;100688.59;5043167;28;20709;-73
2023/08/25 04:13:17;;;;;;;2.03;1.92;;;22.40;99.90;;;22.75;100.00;100698.84;5045669;28;20048;-72
2023/08/25 04:15:46;;;;;;;2.50;2.40;;;22.30;99.90;;;22.63;100.00;100694.16;5042454;28;20084;-71
2023/08/25 04:18:14;;;;;;;2.67;2.58;;;22.20;99.90;;;22.69;100.00;100692.91;5050942;28;20562;-73
2023/08/25 04:20:43;;;;;;;2.30;2.20;;;22.20;99.90;;;22.69;100.00;100693.81;5051908;28;20171;-73
2023/08/25 04:23:12;;;;;;;2.83;2.72;;;22.30;99.90;;;22.67;100.00;100697.53;5050568;28;20122;-73
2023/08/25 04:25:41;;;;;;;2.60;2.50;;;22.30;99.90;;;22.59;100.00;100691.72;5045563;28;20131;-73
2023/08/25 04:28:09;;;;;;;2.33;2.22;;;22.20;99.90;;;22.66;100.00;100685.03;5042588;28;20083;-74
2023/08/25 04:30:38;;;;;;;2.20;2.10;;;22.20;99.90;;;22.73;100.00;100689.97;5040702;28;20056;-73
2023/08/25 04:33:15;;;;;;;2.35;2.25;;;22.30;99.90;;;22.81;100.00;100698.50;5039065;28;20541;-73
2023/08/25 04:35:44;;;;;;;2.17;2.08;;;22.40;99.90;;;22.90;100.00;100710.59;5039609;28;20049;-73
2023/08/25 04:38:15;;;;;;;2.50;2.40;;;22.50;99.90;;;22.91;100.00;100704.22;5050297;28;20061;-73
2023/08/25 04:40:44;;;;;;;2.38;2.28;;;22.60;99.90;;;22.97;100.00;100710.16;5048676;28;20050;-73
2023/08/25 04:43:14;;;;;;;2.25;2.15;;;22.60;99.90;;;22.96;100.00;100710.22;5052554;28;20148;-72
2023/08/25 04:45:42;;;;;;;2.65;2.55;;;22.60;99.90;;;22.96;100.00;100712.91;5031811;28;20130;-73
2023/08/25 04:48:10;;;;;;;2.25;2.15;;;22.50;99.90;;;22.97;100.00;100712.84;5031979;28;20045;-73
2023/08/25 04:50:39;;;;;;;2.40;2.30;;;22.60;99.90;;;22.98;100.00;100717.28;5033161;28;20118;-72
2023/08/25 04:53:08;;;;;;;2.30;2.20;;;22.60;99.90;;;23.03;100.00;100715.19;5040907;28;20045;-73
2023/08/25 04:55:37;;;;;;;2.15;2.05;;;22.60;99.90;;;23.09;100.00;100714.81;5049852;28;20394;-73
2023/08/25 04:58:06;;;;;;;2.47;2.37;;;22.70;99.90;;;23.11;100.00;100717.44;5050695;28;20477;-73
2023/08/25 05:00:35;;;;;;;3.72;3.53;;;22.70;99.90;;;23.07;100.00;100714.03;5049318;28;20299;-72
2023/08/25 05:03:05;;;;;;;2.55;2.45;;;22.70;99.90;;;23.16;100.00;100715.34;5043478;28;20052;-74
2023/08/25 05:05:34;;;;;;;2.20;2.10;;;22.80;99.90;;;23.19;100.00;100716.03;5048663;28;20045;-73
2023/08/25 05:08:02;;;;;;;2.28;2.17;;;22.80;99.90;;;23.10;100.00;100713.00;5041398;28;20042;-73
2023/08/25 05:10:31;;;;;;;2.50;2.40;;;22.70;99.90;;;23.08;100.00;100712.22;5043093;28;20045;-73
2023/08/25 05:13:01;;;;;;;3.30;3.20;;;22.70;99.90;;;23.05;100.00;100702.47;5049749;28;20510;-73
2023/08/25 05:15:29;;;;;;;2.40;2.30;;;22.70;99.90;;;23.05;100.00;100696.22;5042510;28;20560;-73
2023/08/25 05:17:58;;;;;;;2.60;2.50;;;22.60;99.90;;;23.13;100.00;100700.19;5041642;28;20057;-74
2023/08/25 05:20:28;;;;;;;2.50;2.40;;;22.70;99.90;;;;;;5049465;28;20060;-73
2023/08/25 05:22:57;;;;;;;2.70;2.53;;;22.70;99.90;;;23.18;100.00;100698.09;5051234;28;20080;-71
2023/08/25 05:25:25;;;;;;;2.15;2.05;;;22.70;99.90;;;23.22;100.00;100704.19;5048398;28;20095;-73
2023/08/25 05:27:53;;;;;;;2.20;2.10;;;22.80;99.90;;;23.23;100.00;100698.69;5043415;28;20045;-73
2023/08/25 05:30:24;;;;;;;3.55;3.25;;;22.80;99.90;;;23.22;100.00;100699.66;5043639;28;20045;-73
2023/08/25 05:32:54;;;;;;;2.53;2.42;;;22.80;99.90;;;23.18;100.00;100691.81;5040647;28;20069;-73
2023/08/25 05:35:41;;;;;;;2.30;2.20;;;22.80;99.90;;;23.20;100.00;100685.38;5041200;28;20083;-74
2023/08/25 05:38:11;;;;;;;2.27;2.17;;;22.80;99.90;;;23.25;100.00;100679.69;5031802;28;20103;-73
2023/08/25 05:40:39;;;;;;;2.38;2.28;;;22.80;99.90;;;23.29;100.00;100681.25;5039631;28;20560;-72
2023/08/25 05:43:08;;;;;;;2.17;2.08;;;22.80;99.90;;;23.32;100.00;100689.22;5040642;28;20041;-73
2023/08/25 05:45:37;;;;;;;2.20;2.10;;;22.90;99.90;;;23.35;100.00;100682.75;5041876;28;20059;-73
2023/08/25 05:48:07;;;;;;;2.55;2.45;;;22.90;99.90;;;23.36;100.00;100687.19;5037718;28;20447;-72
2023/08/25 05:50:36;;;;;;;2.05;1.95;;;23.00;99.90;;;23.39;100.00;100690.59;5040562;28;20049;-72
2023/08/25 05:53:04;;;;;;;2.55;2.45;;;23.00;99.90;;;23.42;100.00;100690.41;5040930;28;20091;-73
2023/08/25 05:55:33;;;;;;;2.63;2.53;;;23.00;99.90;;;23.40;100.00;100686.94;5050825;28;20041;-72
2023/08/25 05:58:01;;;;;;;2.65;2.55;;;23.00;99.90;;;23.46;100.00;100689.25;5040122;28;20068;-73
2023/08/25 06:00:30;;;;;;;2.30;2.20;;;23.00;99.90;;;23.36;100.00;100681.81;5040369;28;20068;-72
2023/08/25 06:02:59;;;;;;;2.08;1.98;;;23.00;99.90;;;23.44;100.00;100674.97;5043453;28;20071;-73
2023/08/25 06:05:28;;;;;;;2.28;2.17;;;23.10;99.90;;;23.60;100.00;100683.88;5048925;28;20081;-73
2023/08/25 06:07:56;;;;;;;1.95;1.85;;;23.20;99.90;;;23.69;100.00;100675.19;5041141;28;20288;-72
2023/08/25 06:10:25;;;;;;;2.20;2.10;;;23.30;99.90;;;23.77;100.00;100670.19;5041965;28;20466;-73
2023/08/25 06:12:53;;;;;;;2.53;2.42;;;23.40;99.90;;;23.83;100.00;100680.63;5041860;28;20041;-73
2023/08/25 06:15:21;;;;;;;2.63;2.53;;;23.50;99.90;;;23.48;100.00;100668.41;5043089;28;20049;-71
2023/08/25 06:17:50;;;;;;;3.28;3.08;;;23.20;99.90;;;23.35;100.00;100667.44;5041273;28;20049;-72
2023/08/25 06:20:21;;;;;;;2.85;2.75;;;23.00;99.90;;;23.18;100.00;100662.13;5043531;28;20401;-73
2023/08/25 06:22:49;;;;;;;2.88;2.78;;;22.80;99.90;;;23.03;100.00;100663.06;5032244;28;20482;-71
2023/08/25 06:25:17;;;;;;;2.60;2.50;;;22.70;99.90;;;23.07;100.00;100675.41;5032417;28;20147;-73
2023/08/25 06:27:46;;;;;;;3.45;3.25;;;22.70;99.90;;;23.23;100.00;100669.00;5031821;28;20053;-73
2023/08/25 06:30:16;;;;;;;2.60;2.50;;;22.80;99.90;;;23.02;100.00;100680.19;5033188;28;20037;-73
2023/08/25 06:32:44;;;;;;;3.30;3.10;;;22.70;99.90;;;23.12;100.00;100681.38;5042105;28;20118;-72
2023/08/25 06:35:13;;;;;;;2.42;2.33;;;22.70;99.90;;;22.99;100.00;100664.19;5042033;28;20038;-74
2023/08/25 06:37:43;;;;;;;2.35;2.25;;;22.80;99.90;;;22.97;100.00;100676.91;5041061;28;20037;-72
2023/08/25 06:40:12;;;;;;;2.40;2.30;;;22.60;99.90;;;23.09;100.00;100673.50;5043176;28;20067;-73
2023/08/25 06:42:40;;;;;;;2.42;2.33;;;22.70;99.90;;;23.08;100.00;100685.22;5040038;28;20284;-73
2023/08/25 06:45:09;;;;;;;3.50;3.30;;;22.70;99.90;;;22.97;100.00;100674.19;5043948;28;20119;-72
2023/08/25 06:47:38;;;;;;;3.15;3.03;;;22.70;99.90;;;23.07;100.00;100670.84;5040274;28;20045;-73
2023/08/25 06:50:08;;;;;;;2.70;2.60;;;22.80;99.90;;;23.31;100.00;100684.78;5042377;28;20044;-73
2023/08/25 06:52:36;;;;;;;2.65;2.50;;;22.90;99.90;;;23.32;100.00;100689.22;5040109;28;20133;-72
2023/08/25 06:55:07;;;;;;;2.40;2.30;;;23.00;99.90;;;23.37;100.00;100687.09;5041378;28;20045;-73
2023/08/25 06:57:35;;;;;;;4.05;3.85;;;23.10;99.90;;;23.41;99.51;100687.78;5041837;28;20049;-73
2023/08/25 07:00:06;;;;;;;2.80;2.70;;;23.00;99.90;;;23.41;99.39;100682.38;5040752;28;20128;-73
2023/08/25 07:02:35;;;;;;;2.85;2.67;;;23.00;99.90;;;23.21;99.52;100675.44;5043504;28;20060;-73
2023/08/25 07:05:04;;;;;;;3.00;2.90;;;22.90;99.90;;;23.10;99.95;100677.91;5043174;28;20516;-71
2023/08/25 07:07:33;;;;;;;2.83;2.72;;;22.80;99.90;;;22.99;99.75;100681.25;5040336;28;20070;-73
2023/08/25 07:10:01;;;;;;;22.38;20.10;;;22.60;99.90;;;23.03;100.00;100682.81;5043106;28;20073;-71
2023/08/25 07:12:31;;;;;;;2.90;2.80;;;22.60;99.90;;;23.26;99.64;100667.94;5040536;28;20066;-73
2023/08/25 07:14:59;;;;;;;2.17;2.07;;;22.90;99.90;;;23.38;99.04;100671.78;5048421;28;20053;-73
2023/08/25 07:17:29;;;;;;;3.10;3.00;;;23.00;99.90;;;23.43;97.78;100650.75;5041130;28;20066;-72
2023/08/25 07:19:57;;;;;;;3.08;2.95;;;23.20;99.90;;;23.69;98.28;100667.09;5043366;28;20140;-73
2023/08/25 07:22:26;;;;;;;2.30;2.20;;;23.30;99.90;;;23.82;98.31;100654.59;5046378;28;20120;-73
2023/08/25 07:24:54;;;;;;;2.17;2.08;;;23.50;99.90;;;24.03;97.95;100655.97;5043569;28;20049;-72
2023/08/25 07:27:23;;;;;;;2.35;2.25;;;23.70;99.90;;;24.18;96.65;100660.41;5046827;28;20356;-72
2023/08/25 07:29:53;;;;;;;2.20;2.10;;;23.90;99.90;;;24.12;94.87;100652.69;5034840;28;20439;-72
2023/08/25 07:32:22;;;;;;;2.10;2.00;;;23.90;99.90;;;24.44;94.94;100655.16;5041503;28;20140;-72
2023/08/25 07:34:53;;;;;;;2.15;2.05;;;24.10;99.90;;;24.33;92.27;100653.13;5044513;28;20069;-73
2023/08/25 07:37:22;;;;;;;2.10;2.00;;;24.10;99.90;;;24.43;92.24;100658.84;5051483;28;20398;-73
2023/08/25 07:39:52;;;;;;;2.00;1.90;;;24.10;99.90;;;24.27;92.19;100669.78;5045060;28;20087;-72
2023/08/25 07:42:22;;;;;;;2.40;2.22;;;24.00;99.90;;;24.34;90.73;100664.81;5043883;28;20135;-72
2023/08/25 07:44:52;;;;;;;2.30;2.20;;;24.00;99.90;;;24.42;90.64;100663.38;5046472;28;20057;-71
2023/08/25 07:47:20;;;;;;;2.20;2.10;;;24.10;99.90;;;24.27;89.67;100661.66;5034952;28;20096;-71
2023/08/25 07:49:48;;;;;;;2.03;1.92;;;24.00;99.90;;;24.39;89.54;100660.84;5034779;28;20037;-72
2023/08/25 07:52:17;;;;;;;2.10;2.00;;;24.10;99.90;;;24.48;89.71;100667.50;5034395;28;20037;-72
2023/08/25 07:54:45;;;;;;;2.22;2.13;;;24.20;99.90;;;24.58;88.96;100668.66;5035105;28;20131;-72
2023/08/25 07:57:13;;;;;;;4.07;3.88;;;24.30;99.90;;;24.66;88.47;100669.03;5043936;28;20045;-72
2023/08/25 07:59:42;;;;;;;2.92;2.83;;;24.40;99.90;;;24.69;86.75;100676.94;5043983;28;20054;-72
2023/08/25 08:02:12;;;;;;;2.30;2.20;;;24.40;99.90;;;24.65;85.50;100675.41;5044005;28;20099;-73
2023/08/25 08:04:40;;;;;;;2.20;2.10;;;24.40;99.90;;;24.50;86.06;100679.97;5045171;28;20051;-72
2023/08/25 08:07:08;;;;;;;2.00;1.90;;;24.20;99.90;;;24.50;85.15;100681.81;5042425;28;20081;-73
2023/08/25 08:09:37;;;;;;;2.47;2.38;;;24.20;99.90;;;24.52;86.47;100680.75;5045807;28;20049;-73
2023/08/25 08:12:06;;;;;;;2.55;2.45;;;24.20;99.90;;;24.36;85.19;100680.00;5034673;28;20045;-72
2023/08/25 08:14:36;;;;;;;1.70;1.70;;;24.10;99.90;;;24.48;85.95;100678.34;5033865;28;20048;-72
2023/08/25 08:17:15;;;;;;;2.20;2.10;;;24.20;99.90;;;24.51;85.01;100673.59;5033867;28;20136;-73
2023/08/25 08:19:43;;;;;;;2.80;2.63;;;24.20;99.90;;;24.50;84.90;100671.88;5036713;28;20068;-71
2023/08/25 08:22:12;;;;;;;2.42;2.33;;;24.20;99.90;;;24.50;84.16;100681.81;5042446;28;20766;-72
2023/08/25 08:24:41;;;;;;;2.45;2.35;;;24.20;99.90;;;24.32;85.32;100683.84;5045863;28;20127;-72
2023/08/25 08:27:19;;;;;;;2.40;2.30;;;24.10;99.90;;;24.32;85.27;100686.56;5042194;28;20399;-73
2023/08/25 08:29:48;;;;;;;2.10;2.00;;;24.00;99.90;;;24.47;85.01;100687.41;5043688;28;20057;-72
2023/08/25 08:32:18;;;;;;;2.20;2.10;;;24.20;99.90;;;24.62;83.56;100691.84;5043975;28;20144;-72
2023/08/25 08:34:46;;;;;;;2.35;2.25;;;24.30;99.90;;;24.55;83.34;100685.94;5042401;28;20099;-72
2023/08/25 08:37:15;;;;;;;2.22;2.13;;;24.30;99.90;;;24.58;84.43;100695.72;5043867;28;20629;-71
2023/08/25 08:39:44;;;;;;;7.53;3.90;;;24.20;99.90;;;24.50;83.43;100692.63;5041989;28;20107;-73
2023/08/25 08:42:15;;;;;;;2.35;2.25;;;24.20;99.90;;;24.59;84.18;100686.63;5041887;28;20077;-72
2023/08/25 08:44:47;;;;;;;2.10;2.00;;;24.20;99.90;;;24.66;83.09;100685.25;5044681;28;20048;-73
2023/08/25 08:47:18;;;;;;;6.25;3.05;;;24.30;99.90;;;24.91;81.16;100685.41;5043183;28;20080;-71
2023/08/25 08:49:47;;;;;;;2.28;2.17;;;24.60;99.90;;;24.72;80.12;100683.03;5042915;28;20053;-72
2023/08/25 08:52:16;;;;;;;2.33;2.22;;;24.60;99.90;;;24.83;79.85;100685.94;5044315;28;20041;-73
2023/08/25 08:54:45;;;;;;;2.72;2.53;;;24.60;99.90;;;24.77;80.37;100690.88;5041721;28;20155;-73
2023/08/25 08:57:15;;;;;;;2.40;2.30;;;24.50;99.90;;;24.90;80.12;100699.91;5040637;28;20499;-73
2023/08/25 08:59:43;;;;;;;2.78;2.58;;;24.60;99.90;;;24.94;80.65;100698.72;5039860;28;20049;-73
2023/08/25 09:02:15;;;;;;;1.98;1.88;;;24.60;99.90;;;25.04;79.69;100706.16;5043610;28;20075;-72
2023/08/25 09:04:46;;;;;;;1.80;1.75;;;24.70;99.90;;;25.16;79.07;100706.28;5042571;28;20049;-72
2023/08/25 09:07:14;;;;;;;2.20;2.10;;;24.80;99.90;;;25.27;77.96;100709.13;5042453;28;20037;-73
2023/08/25 09:09:45;;;;;;;2.05;1.95;;;25.00;99.90;;;25.39;77.66;100717.34;5043581;28;20585;-72
2023/08/25 09:12:20;;;;;;;8.68;3.33;;;25.10;99.90;;;25.47;76.72;100709.56;5041119;28;20060;-73
2023/08/25 09:14:49;;;;;;;2.40;2.30;;;25.20;99.90;;;25.25;76.39;100711.09;5041999;28;20099;-74
2023/08/25 09:17:18;;;;;;;1.90;1.85;;;25.00;99.90;;;25.31;75.66;100710.66;5043165;28;20521;-73
2023/08/25 09:19:49;;;;;;;2.10;2.00;;;25.00;99.90;;;25.38;74.84;100715.56;5042767;28;20041;-73
2023/08/25 09:22:18;;;;;;;;;;;25.00;99.90;;;25.49;74.72;100714.88;5042630;28;20048;-74
2023/08/25 09:24:46;;;;;;;1.90;1.80;;;25.20;99.90;;;25.62;75.60;100724.78;5043857;28;19925;-73
2023/08/25 09:27:25;;;;;;;2.17;2.08;;;25.30;99.90;;;25.65;75.98;100720.97;5041516;28;20049;-73
2023/08/25 09:30:03;;;;;;;2.20;2.10;;;25.40;99.90;;;25.70;75.24;100716.13;5041955;28;20107;-73
2023/08/25 09:32:32;;;;;;;1.95;1.92;;;25.40;99.90;;;25.71;74.18;100721.41;5042008;28;20099;-73
2023/08/25 09:35:13;;;;;;;1.83;1.83;;;25.50;99.90;;;25.75;74.43;100719.34;5043794;28;20052;-73
2023/08/25 09:37:42;;;;;;;7.00;5.60;;;25.50;99.90;;;25.62;75.97;100723.91;5042098;28;20053;-73
2023/08/25 09:40:15;;;;;;;2.20;2.10;;;25.30;99.90;;;25.64;75.86;100727.38;5032660;28;20049;-73
2023/08/25 09:42:44;;;;;;;1.98;1.88;;;25.20;99.90;;;25.74;75.53;100723.06;5032103;28;20042;-73
2023/08/25 09:45:13;;;;;;;2.22;2.13;;;25.50;99.90;;;25.69;74.83;100720.66;5032919;28;20120;-72
2023/08/25 09:47:42;;;;;;;2.35;2.25;;;25.30;99.90;;;25.66;72.95;100715.47;5040423;28;20047;-73
2023/08/25 09:50:17;;;;;;;2.20;2.10;;;25.30;99.90;;;25.91;74.58;100714.63;5040628;28;20399;-71
2023/08/25 09:52:48;;;;;;;1.73;1.73;;;25.60;99.90;;;26.23;74.59;100712.38;5043260;28;20110;-73
2023/08/25 09:55:17;;;;;;;1.60;1.60;;;25.90;99.90;;;26.29;70.83;100709.19;5042516;28;20053;-71
2023/08/25 09:57:48;;;;;;;1.80;1.80;;;26.10;99.90;;;26.48;70.77;100712.34;5041554;28;20482;-73
2023/08/25 10:00:19;;;;;;;1.65;1.65;;;26.20;99.90;;;26.81;71.66;100707.16;5042970;28;20044;-72
2023/08/25 10:02:49;;;;;;;12.25;5.95;;;26.50;99.90;;;27.16;70.86;100715.41;5043438;28;20574;-73
2023/08/25 10:05:21;;;;;;;2.00;1.90;;;26.80;99.90;;;27.11;69.35;100707.59;5039820;28;20053;-73
2023/08/25 10:07:52;;;;;;;1.63;1.63;;;26.90;99.90;;;27.21;67.58;100715.94;5041758;28;20052;-73
2023/08/25 10:10:24;;;;;;;1.38;1.38;;;27.10;99.90;;;27.33;68.00;100709.59;5042113;28;20045;-73
2023/08/25 10:12:57;;;;;;;1.80;1.70;;;27.10;99.90;;;27.34;67.77;100709.47;5042890;28;20139;-74
2023/08/25 10:15:30;;;;;;;4.75;4.35;;;27.20;99.90;;;27.37;68.55;100698.34;5055727;28;20060;-73
2023/08/25 10:18:02;;;;;;;1.55;1.55;;;27.20;99.90;;;27.39;68.70;100693.66;5032180;28;20140;-73
2023/08/25 10:20:34;;;;;;;2.33;2.05;;;27.10;99.90;;;27.21;68.48;100665.19;5031876;28;20049;-74